sensor_id;sensor_type;location;lat;lon;timestamp;P1;durP1;ratioP1;P2;durP2;ratioP2
19396;SDS011;9834;48.076;11.878;2022-07-18T00:00:51;3.40;;;3.10;;
19396;SDS011;9834;48.076;11.878;2022-07-18T00:03:18;3.57;;;3.27;;
19396;SDS011;9834;48.076;11.878;2022-07-18T00:05:45;3.83;;;3.53;;
19396;SDS011;9834;48.076;11.878;2022-07-18T00:08:12;3.83;;;3.53;;
19396;SDS011;9834;48.076;11.878;2022-07-18T00:10:39;4.67;;;3.63;;
19396;SDS011;9834;48.076;11.878;2022-07-18T00:13:08;4.17;;;3.70;;
19396;SDS011;9834;48.076;11.878;2022-07-18T00:15:35;3.30;;;3.10;;
19396;SDS011;9834;48.076;11.878;2022-07-18T00:18:03;3.57;;;3.27;;
19396;SDS011;9834;48.076;11.878;2022-07-18T00:20:30;3.67;;;3.27;;
19396;SDS011;9834;48.076;11.878;2022-07-18T00:22:57;3.80;;;3.50;;
19396;SDS011;9834;48.076;11.878;2022-07-18T00:25:24;3.60;;;3.40;;
19396;SDS011;9834;48.076;11.878;2022-07-18T00:27:51;3.73;;;3.43;;
19396;SDS011;9834;48.076;11.878;2022-07-18T00:30:20;3.53;;;3.23;;
19396;SDS011;9834;48.076;11.878;2022-07-18T00:32:47;3.33;;;3.03;;
19396;SDS011;9834;48.076;11.878;2022-07-18T00:35:14;3.67;;;3.27;;
19396;SDS011;9834;48.076;11.878;2022-07-18T00:37:42;3.77;;;3.43;;
19396;SDS011;9834;48.076;11.878;2022-07-18T00:40:09;3.80;;;3.17;;
19396;SDS011;9834;48.076;11.878;2022-07-18T00:42:36;5.77;;;3.70;;
19396;SDS011;9834;48.076;11.878;2022-07-18T00:45:03;4.30;;;3.37;;
19396;SDS011;9834;48.076;11.878;2022-07-18T00:47:32;3.80;;;3.50;;
19396;SDS011;9834;48.076;11.878;2022-07-18T00:49:59;7.93;;;3.80;;
19396;SDS011;9834;48.076;11.878;2022-07-18T00:52:28;4.07;;;3.77;;
19396;SDS011;9834;48.076;11.878;2022-07-18T00:54:55;4.00;;;3.70;;
19396;SDS011;9834;48.076;11.878;2022-07-18T00:57:22;4.37;;;3.77;;
19396;SDS011;9834;48.076;11.878;2022-07-18T00:59:49;3.60;;;3.30;;
19396;SDS011;9834;48.076;11.878;2022-07-18T01:02:36;4.13;;;3.83;;
19396;SDS011;9834;48.076;11.878;2022-07-18T01:05:03;3.90;;;3.60;;
19396;SDS011;9834;48.076;11.878;2022-07-18T01:07:30;3.83;;;3.43;;
19396;SDS011;9834;48.076;11.878;2022-07-18T01:09:57;3.87;;;3.47;;
19396;SDS011;9834;48.076;11.878;2022-07-18T01:12:25;4.07;;;3.67;;
19396;SDS011;9834;48.076;11.878;2022-07-18T01:14:52;4.10;;;3.63;;
19396;SDS011;9834;48.076;11.878;2022-07-18T01:17:20;4.03;;;3.73;;
19396;SDS011;9834;48.076;11.878;2022-07-18T01:19:49;3.90;;;3.60;;
19396;SDS011;9834;48.076;11.878;2022-07-18T01:22:18;4.47;;;4.07;;
19396;SDS011;9834;48.076;11.878;2022-07-18T01:24:46;4.40;;;4.00;;
19396;SDS011;9834;48.076;11.878;2022-07-18T01:27:14;4.17;;;3.77;;
19396;SDS011;9834;48.076;11.878;2022-07-18T01:29:42;3.90;;;3.60;;
19396;SDS011;9834;48.076;11.878;2022-07-18T01:32:10;3.60;;;3.37;;
19396;SDS011;9834;48.076;11.878;2022-07-18T01:34:38;4.33;;;4.00;;
19396;SDS011;9834;48.076;11.878;2022-07-18T01:37:06;4.00;;;3.70;;
19396;SDS011;9834;48.076;11.878;2022-07-18T01:39:35;5.50;;;4.33;;
19396;SDS011;9834;48.076;11.878;2022-07-18T01:42:03;3.83;;;3.53;;
19396;SDS011;9834;48.076;11.878;2022-07-18T01:44:32;4.00;;;3.70;;
19396;SDS011;9834;48.076;11.878;2022-07-18T01:47:00;4.80;;;4.23;;
19396;SDS011;9834;48.076;11.878;2022-07-18T01:49:27;4.30;;;3.90;;
19396;SDS011;9834;48.076;11.878;2022-07-18T01:51:55;5.03;;;3.87;;
19396;SDS011;9834;48.076;11.878;2022-07-18T01:54:24;4.20;;;3.83;;
19396;SDS011;9834;48.076;11.878;2022-07-18T01:56:53;4.80;;;4.40;;
19396;SDS011;9834;48.076;11.878;2022-07-18T01:59:20;4.43;;;3.60;;
19396;SDS011;9834;48.076;11.878;2022-07-18T02:01:48;5.40;;;4.20;;
19396;SDS011;9834;48.076;11.878;2022-07-18T02:04:15;4.77;;;4.37;;
19396;SDS011;9834;48.076;11.878;2022-07-18T02:06:42;4.63;;;4.33;;
19396;SDS011;9834;48.076;11.878;2022-07-18T02:09:10;5.00;;;4.50;;
19396;SDS011;9834;48.076;11.878;2022-07-18T02:11:37;4.27;;;3.87;;
19396;SDS011;9834;48.076;11.878;2022-07-18T02:14:06;4.40;;;4.00;;
19396;SDS011;9834;48.076;11.878;2022-07-18T02:16:33;4.57;;;4.20;;
19396;SDS011;9834;48.076;11.878;2022-07-18T02:18:59;4.60;;;4.13;;
19396;SDS011;9834;48.076;11.878;2022-07-18T02:21:26;4.70;;;4.30;;
19396;SDS011;9834;48.076;11.878;2022-07-18T02:23:53;4.73;;;4.33;;
19396;SDS011;9834;48.076;11.878;2022-07-18T02:26:20;4.57;;;4.17;;
19396;SDS011;9834;48.076;11.878;2022-07-18T02:28:47;5.03;;;4.63;;
19396;SDS011;9834;48.076;11.878;2022-07-18T02:31:16;4.90;;;4.50;;
19396;SDS011;9834;48.076;11.878;2022-07-18T02:33:42;6.23;;;5.07;;
19396;SDS011;9834;48.076;11.878;2022-07-18T02:36:09;5.30;;;4.80;;
19396;SDS011;9834;48.076;11.878;2022-07-18T02:38:36;6.60;;;4.77;;
19396;SDS011;9834;48.076;11.878;2022-07-18T02:41:03;5.20;;;4.80;;
19396;SDS011;9834;48.076;11.878;2022-07-18T02:43:30;4.70;;;4.00;;
19396;SDS011;9834;48.076;11.878;2022-07-18T02:45:57;5.37;;;4.87;;
19396;SDS011;9834;48.076;11.878;2022-07-18T02:48:26;5.17;;;4.67;;
19396;SDS011;9834;48.076;11.878;2022-07-18T02:50:53;5.40;;;4.90;;
19396;SDS011;9834;48.076;11.878;2022-07-18T02:53:20;5.37;;;4.87;;
19396;SDS011;9834;48.076;11.878;2022-07-18T02:55:48;5.70;;;4.87;;
19396;SDS011;9834;48.076;11.878;2022-07-18T02:58:15;5.30;;;4.80;;
19396;SDS011;9834;48.076;11.878;2022-07-18T03:00:43;5.50;;;4.43;;
19396;SDS011;9834;48.076;11.878;2022-07-18T03:03:10;5.63;;;4.80;;
19396;SDS011;9834;48.076;11.878;2022-07-18T03:05:38;4.83;;;4.43;;
19396;SDS011;9834;48.076;11.878;2022-07-18T03:08:05;4.90;;;4.37;;
19396;SDS011;9834;48.076;11.878;2022-07-18T03:10:32;5.63;;;4.50;;
19396;SDS011;9834;48.076;11.878;2022-07-18T03:12:59;5.13;;;4.63;;
19396;SDS011;9834;48.076;11.878;2022-07-18T03:15:26;5.40;;;4.90;;
19396;SDS011;9834;48.076;11.878;2022-07-18T03:17:52;5.40;;;5.00;;
19396;SDS011;9834;48.076;11.878;2022-07-18T03:20:19;5.50;;;5.00;;
19396;SDS011;9834;48.076;11.878;2022-07-18T03:22:48;4.87;;;4.47;;
19396;SDS011;9834;48.076;11.878;2022-07-18T03:25:15;5.33;;;4.93;;
19396;SDS011;9834;48.076;11.878;2022-07-18T03:27:42;5.40;;;4.90;;
19396;SDS011;9834;48.076;11.878;2022-07-18T03:30:09;5.10;;;4.70;;
19396;SDS011;9834;48.076;11.878;2022-07-18T03:32:37;4.53;;;4.13;;
19396;SDS011;9834;48.076;11.878;2022-07-18T03:35:04;5.00;;;4.50;;
19396;SDS011;9834;48.076;11.878;2022-07-18T03:37:32;5.03;;;4.63;;
19396;SDS011;9834;48.076;11.878;2022-07-18T03:40:00;4.57;;;4.17;;
19396;SDS011;9834;48.076;11.878;2022-07-18T03:42:28;4.80;;;4.40;;
19396;SDS011;9834;48.076;11.878;2022-07-18T03:44:55;5.37;;;4.87;;
19396;SDS011;9834;48.076;11.878;2022-07-18T03:47:21;5.00;;;4.60;;
19396;SDS011;9834;48.076;11.878;2022-07-18T03:49:49;4.93;;;4.53;;
19396;SDS011;9834;48.076;11.878;2022-07-18T03:52:15;5.03;;;4.63;;
19396;SDS011;9834;48.076;11.878;2022-07-18T03:54:43;5.97;;;5.37;;
19396;SDS011;9834;48.076;11.878;2022-07-18T03:57:11;4.90;;;4.50;;
19396;SDS011;9834;48.076;11.878;2022-07-18T03:59:38;4.97;;;4.57;;
19396;SDS011;9834;48.076;11.878;2022-07-18T04:02:05;5.33;;;4.63;;
19396;SDS011;9834;48.076;11.878;2022-07-18T04:04:32;5.70;;;5.10;;
19396;SDS011;9834;48.076;11.878;2022-07-18T04:06:59;9.43;;;5.17;;
19396;SDS011;9834;48.076;11.878;2022-07-18T04:09:27;5.40;;;5.00;;
19396;SDS011;9834;48.076;11.878;2022-07-18T04:11:54;5.87;;;4.50;;
19396;SDS011;9834;48.076;11.878;2022-07-18T04:14:22;6.50;;;5.07;;
19396;SDS011;9834;48.076;11.878;2022-07-18T04:16:49;4.73;;;4.33;;
19396;SDS011;9834;48.076;11.878;2022-07-18T04:19:16;5.30;;;4.70;;
19396;SDS011;9834;48.076;11.878;2022-07-18T04:21:43;4.67;;;4.27;;
19396;SDS011;9834;48.076;11.878;2022-07-18T04:24:10;6.13;;;4.27;;
19396;SDS011;9834;48.076;11.878;2022-07-18T04:26:37;5.20;;;4.53;;
19396;SDS011;9834;48.076;11.878;2022-07-18T04:29:04;4.23;;;3.93;;
19396;SDS011;9834;48.076;11.878;2022-07-18T04:31:33;4.97;;;4.57;;
19396;SDS011;9834;48.076;11.878;2022-07-18T04:34:00;5.23;;;4.20;;
19396;SDS011;9834;48.076;11.878;2022-07-18T04:36:27;4.63;;;4.23;;
19396;SDS011;9834;48.076;11.878;2022-07-18T04:38:54;4.23;;;3.80;;
19396;SDS011;9834;48.076;11.878;2022-07-18T04:41:21;5.13;;;4.23;;
19396;SDS011;9834;48.076;11.878;2022-07-18T04:43:50;4.30;;;3.90;;
19396;SDS011;9834;48.076;11.878;2022-07-18T04:46:17;4.20;;;3.80;;
19396;SDS011;9834;48.076;11.878;2022-07-18T04:48:46;4.20;;;3.90;;
19396;SDS011;9834;48.076;11.878;2022-07-18T04:51:13;4.90;;;4.40;;
19396;SDS011;9834;48.076;11.878;2022-07-18T04:53:41;5.20;;;4.70;;
19396;SDS011;9834;48.076;11.878;2022-07-18T04:56:08;5.13;;;3.97;;
19396;SDS011;9834;48.076;11.878;2022-07-18T04:58:35;4.30;;;3.90;;
19396;SDS011;9834;48.076;11.878;2022-07-18T05:01:02;4.57;;;3.90;;
19396;SDS011;9834;48.076;11.878;2022-07-18T05:03:29;4.27;;;3.97;;
19396;SDS011;9834;48.076;11.878;2022-07-18T05:05:57;4.33;;;3.80;;
19396;SDS011;9834;48.076;11.878;2022-07-18T05:08:24;5.00;;;4.23;;
19396;SDS011;9834;48.076;11.878;2022-07-18T05:10:51;4.77;;;4.27;;
19396;SDS011;9834;48.076;11.878;2022-07-18T05:13:18;5.40;;;4.33;;
19396;SDS011;9834;48.076;11.878;2022-07-18T05:15:45;4.47;;;4.07;;
19396;SDS011;9834;48.076;11.878;2022-07-18T05:18:12;5.30;;;4.23;;
19396;SDS011;9834;48.076;11.878;2022-07-18T05:20:39;4.97;;;4.57;;
19396;SDS011;9834;48.076;11.878;2022-07-18T05:23:08;5.37;;;4.23;;
19396;SDS011;9834;48.076;11.878;2022-07-18T05:25:35;5.80;;;4.47;;
19396;SDS011;9834;48.076;11.878;2022-07-18T05:28:02;4.80;;;4.17;;
19396;SDS011;9834;48.076;11.878;2022-07-18T05:30:30;4.60;;;4.20;;
19396;SDS011;9834;48.076;11.878;2022-07-18T05:32:57;4.70;;;3.80;;
19396;SDS011;9834;48.076;11.878;2022-07-18T05:35:24;4.50;;;4.10;;
19396;SDS011;9834;48.076;11.878;2022-07-18T05:37:51;3.50;;;3.20;;
19396;SDS011;9834;48.076;11.878;2022-07-18T05:40:19;4.77;;;3.70;;
19396;SDS011;9834;48.076;11.878;2022-07-18T05:42:46;4.27;;;3.63;;
19396;SDS011;9834;48.076;11.878;2022-07-18T05:45:15;4.67;;;3.50;;
19396;SDS011;9834;48.076;11.878;2022-07-18T05:47:42;5.30;;;4.20;;
19396;SDS011;9834;48.076;11.878;2022-07-18T05:50:09;6.07;;;3.90;;
19396;SDS011;9834;48.076;11.878;2022-07-18T05:52:36;4.37;;;3.97;;
19396;SDS011;9834;48.076;11.878;2022-07-18T05:55:03;4.20;;;3.40;;
19396;SDS011;9834;48.076;11.878;2022-07-18T05:57:33;4.17;;;3.30;;
19396;SDS011;9834;48.076;11.878;2022-07-18T06:00:00;3.57;;;3.10;;
19396;SDS011;9834;48.076;11.878;2022-07-18T06:02:29;4.17;;;3.40;;
19396;SDS011;9834;48.076;11.878;2022-07-18T06:04:56;3.67;;;3.33;;
19396;SDS011;9834;48.076;11.878;2022-07-18T06:07:24;9.10;;;3.67;;
19396;SDS011;9834;48.076;11.878;2022-07-18T06:09:51;4.37;;;3.13;;
19396;SDS011;9834;48.076;11.878;2022-07-18T06:12:18;4.50;;;4.10;;
19396;SDS011;9834;48.076;11.878;2022-07-18T06:14:47;3.27;;;3.03;;
19396;SDS011;9834;48.076;11.878;2022-07-18T06:17:14;3.80;;;3.30;;
19396;SDS011;9834;48.076;11.878;2022-07-18T06:19:41;2.80;;;2.60;;
19396;SDS011;9834;48.076;11.878;2022-07-18T06:22:08;3.93;;;2.83;;
19396;SDS011;9834;48.076;11.878;2022-07-18T06:24:36;5.90;;;3.17;;
19396;SDS011;9834;48.076;11.878;2022-07-18T06:27:02;3.00;;;2.73;;
19396;SDS011;9834;48.076;11.878;2022-07-18T06:29:29;5.10;;;3.70;;
19396;SDS011;9834;48.076;11.878;2022-07-18T06:31:58;3.90;;;2.90;;
19396;SDS011;9834;48.076;11.878;2022-07-18T06:34:25;3.20;;;2.90;;
19396;SDS011;9834;48.076;11.878;2022-07-18T06:36:52;4.17;;;2.67;;
19396;SDS011;9834;48.076;11.878;2022-07-18T06:39:19;4.87;;;3.00;;
19396;SDS011;9834;48.076;11.878;2022-07-18T06:41:46;4.17;;;2.73;;
19396;SDS011;9834;48.076;11.878;2022-07-18T06:44:13;3.00;;;2.70;;
19396;SDS011;9834;48.076;11.878;2022-07-18T06:46:40;4.43;;;2.87;;
19396;SDS011;9834;48.076;11.878;2022-07-18T06:49:08;3.30;;;2.40;;
19396;SDS011;9834;48.076;11.878;2022-07-18T06:51:36;3.20;;;2.60;;
19396;SDS011;9834;48.076;11.878;2022-07-18T06:54:03;2.23;;;2.13;;
19396;SDS011;9834;48.076;11.878;2022-07-18T06:56:30;4.17;;;2.83;;
19396;SDS011;9834;48.076;11.878;2022-07-18T06:58:57;3.60;;;3.00;;
19396;SDS011;9834;48.076;11.878;2022-07-18T07:01:24;3.60;;;2.77;;
19396;SDS011;9834;48.076;11.878;2022-07-18T07:03:51;4.70;;;3.33;;
19396;SDS011;9834;48.076;11.878;2022-07-18T07:06:19;3.53;;;2.70;;
19396;SDS011;9834;48.076;11.878;2022-07-18T07:08:46;2.97;;;2.77;;
19396;SDS011;9834;48.076;11.878;2022-07-18T07:11:13;3.77;;;2.40;;
19396;SDS011;9834;48.076;11.878;2022-07-18T07:13:40;4.50;;;2.97;;
19396;SDS011;9834;48.076;11.878;2022-07-18T07:16:07;3.50;;;2.77;;
19396;SDS011;9834;48.076;11.878;2022-07-18T07:18:34;2.87;;;2.60;;
19396;SDS011;9834;48.076;11.878;2022-07-18T07:21:01;3.17;;;2.87;;
19396;SDS011;9834;48.076;11.878;2022-07-18T07:23:30;5.27;;;3.20;;
19396;SDS011;9834;48.076;11.878;2022-07-18T07:25:57;3.00;;;2.80;;
19396;SDS011;9834;48.076;11.878;2022-07-18T07:28:24;6.00;;;3.00;;
19396;SDS011;9834;48.076;11.878;2022-07-18T07:30:51;3.10;;;2.40;;
19396;SDS011;9834;48.076;11.878;2022-07-18T07:33:18;4.67;;;2.60;;
19396;SDS011;9834;48.076;11.878;2022-07-18T07:35:45;2.50;;;2.30;;
19396;SDS011;9834;48.076;11.878;2022-07-18T07:38:12;3.87;;;2.67;;
19396;SDS011;9834;48.076;11.878;2022-07-18T07:40:45;4.10;;;2.40;;
19396;SDS011;9834;48.076;11.878;2022-07-18T07:43:14;5.15;;;2.47;;
19396;SDS011;9834;48.076;11.878;2022-07-18T07:45:42;3.22;;;2.88;;
19396;SDS011;9834;48.076;11.878;2022-07-18T07:48:11;5.07;;;2.60;;
19396;SDS011;9834;48.076;11.878;2022-07-18T07:50:38;2.75;;;2.55;;
19396;SDS011;9834;48.076;11.878;2022-07-18T07:53:06;4.28;;;2.60;;
19396;SDS011;9834;48.076;11.878;2022-07-18T07:55:33;3.28;;;2.90;;
19396;SDS011;9834;48.076;11.878;2022-07-18T07:58:02;3.72;;;2.70;;
19396;SDS011;9834;48.076;11.878;2022-07-18T08:00:30;4.18;;;2.30;;
19396;SDS011;9834;48.076;11.878;2022-07-18T08:02:57;4.80;;;2.55;;
19396;SDS011;9834;48.076;11.878;2022-07-18T08:05:26;2.70;;;2.50;;
19396;SDS011;9834;48.076;11.878;2022-07-18T08:07:54;3.10;;;2.80;;
19396;SDS011;9834;48.076;11.878;2022-07-18T08:10:21;2.53;;;2.33;;
19396;SDS011;9834;48.076;11.878;2022-07-18T08:12:48;5.55;;;2.55;;
19396;SDS011;9834;48.076;11.878;2022-07-18T08:15:17;2.40;;;2.20;;
19396;SDS011;9834;48.076;11.878;2022-07-18T08:17:44;2.90;;;2.17;;
19396;SDS011;9834;48.076;11.878;2022-07-18T08:20:11;2.88;;;2.25;;
19396;SDS011;9834;48.076;11.878;2022-07-18T08:22:51;3.88;;;1.98;;
19396;SDS011;9834;48.076;11.878;2022-07-18T08:25:18;2.28;;;2.08;;
19396;SDS011;9834;48.076;11.878;2022-07-18T08:27:46;3.50;;;1.95;;
19396;SDS011;9834;48.076;11.878;2022-07-18T08:30:12;3.47;;;2.08;;
19396;SDS011;9834;48.076;11.878;2022-07-18T08:32:41;3.75;;;2.22;;
19396;SDS011;9834;48.076;11.878;2022-07-18T08:35:08;3.75;;;2.20;;
19396;SDS011;9834;48.076;11.878;2022-07-18T08:37:35;1.98;;;1.70;;
19396;SDS011;9834;48.076;11.878;2022-07-18T08:40:03;1.80;;;1.63;;
19396;SDS011;9834;48.076;11.878;2022-07-18T08:42:32;2.50;;;1.65;;
19396;SDS011;9834;48.076;11.878;2022-07-18T08:45:00;2.40;;;2.20;;
19396;SDS011;9834;48.076;11.878;2022-07-18T08:47:29;2.65;;;1.80;;
19396;SDS011;9834;48.076;11.878;2022-07-18T08:50:00;2.75;;;2.25;;
19396;SDS011;9834;48.076;11.878;2022-07-18T08:52:28;4.07;;;2.05;;
19396;SDS011;9834;48.076;11.878;2022-07-18T08:54:55;2.33;;;1.73;;
19396;SDS011;9834;48.076;11.878;2022-07-18T08:57:23;2.40;;;2.00;;
19396;SDS011;9834;48.076;11.878;2022-07-18T08:59:50;1.90;;;1.80;;
19396;SDS011;9834;48.076;11.878;2022-07-18T09:02:17;3.40;;;1.73;;
19396;SDS011;9834;48.076;11.878;2022-07-18T09:04:44;2.97;;;2.05;;
19396;SDS011;9834;48.076;11.878;2022-07-18T09:07:22;2.97;;;2.10;;
19396;SDS011;9834;48.076;11.878;2022-07-18T09:09:54;2.20;;;2.00;;
19396;SDS011;9834;48.076;11.878;2022-07-18T09:12:22;2.67;;;2.10;;
19396;SDS011;9834;48.076;11.878;2022-07-18T09:14:50;3.00;;;2.20;;
19396;SDS011;9834;48.076;11.878;2022-07-18T09:17:18;1.90;;;1.80;;
19396;SDS011;9834;48.076;11.878;2022-07-18T09:19:56;2.25;;;1.75;;
19396;SDS011;9834;48.076;11.878;2022-07-18T09:22:27;2.35;;;2.08;;
19396;SDS011;9834;48.076;11.878;2022-07-18T09:24:59;2.20;;;2.00;;
19396;SDS011;9834;48.076;11.878;2022-07-18T09:27:33;3.67;;;2.50;;
19396;SDS011;9834;48.076;11.878;2022-07-18T09:30:10;1.70;;;1.60;;
19396;SDS011;9834;48.076;11.878;2022-07-18T09:32:43;2.97;;;1.50;;
19396;SDS011;9834;48.076;11.878;2022-07-18T09:35:12;2.75;;;1.80;;
19396;SDS011;9834;48.076;11.878;2022-07-18T09:37:42;1.83;;;1.42;;
19396;SDS011;9834;48.076;11.878;2022-07-18T09:40:20;1.98;;;1.85;;
19396;SDS011;9834;48.076;11.878;2022-07-18T09:42:49;2.85;;;1.73;;
19396;SDS011;9834;48.076;11.878;2022-07-18T09:45:21;3.55;;;1.60;;
19396;SDS011;9834;48.076;11.878;2022-07-18T09:47:49;2.13;;;1.45;;
19396;SDS011;9834;48.076;11.878;2022-07-18T09:50:19;2.63;;;1.50;;
19396;SDS011;9834;48.076;11.878;2022-07-18T09:52:56;6.22;;;1.55;;
19396;SDS011;9834;48.076;11.878;2022-07-18T09:55:24;1.30;;;1.20;;
19396;SDS011;9834;48.076;11.878;2022-07-18T09:57:58;2.17;;;1.40;;
19396;SDS011;9834;48.076;11.878;2022-07-18T10:00:28;3.13;;;1.60;;
19396;SDS011;9834;48.076;11.878;2022-07-18T10:02:56;1.73;;;1.23;;
19396;SDS011;9834;48.076;11.878;2022-07-18T10:05:26;1.35;;;1.25;;
19396;SDS011;9834;48.076;11.878;2022-07-18T10:07:54;1.15;;;1.02;;
19396;SDS011;9834;48.076;11.878;2022-07-18T10:10:22;1.70;;;1.40;;
19396;SDS011;9834;48.076;11.878;2022-07-18T10:12:53;1.50;;;1.35;;
19396;SDS011;9834;48.076;11.878;2022-07-18T10:15:22;4.78;;;1.58;;
19396;SDS011;9834;48.076;11.878;2022-07-18T10:17:50;2.65;;;1.23;;
19396;SDS011;9834;48.076;11.878;2022-07-18T10:20:17;4.20;;;1.40;;
19396;SDS011;9834;48.076;11.878;2022-07-18T10:22:52;1.88;;;1.27;;
19396;SDS011;9834;48.076;11.878;2022-07-18T10:25:23;2.58;;;1.30;;
19396;SDS011;9834;48.076;11.878;2022-07-18T10:27:51;1.00;;;1.00;;
19396;SDS011;9834;48.076;11.878;2022-07-18T10:30:30;2.45;;;0.98;;
19396;SDS011;9834;48.076;11.878;2022-07-18T10:32:59;2.63;;;1.13;;
19396;SDS011;9834;48.076;11.878;2022-07-18T10:38:29;1.30;;;1.20;;
19396;SDS011;9834;48.076;11.878;2022-07-18T10:41:04;1.63;;;1.00;;
19396;SDS011;9834;48.076;11.878;2022-07-18T10:46:18;1.13;;;1.10;;
19396;SDS011;9834;48.076;11.878;2022-07-18T10:48:54;1.08;;;0.98;;
19396;SDS011;9834;48.076;11.878;2022-07-18T10:51:34;2.92;;;1.40;;
19396;SDS011;9834;48.076;11.878;2022-07-18T10:54:08;1.63;;;1.27;;
19396;SDS011;9834;48.076;11.878;2022-07-18T11:02:37;1.33;;;1.10;;
19396;SDS011;9834;48.076;11.878;2022-07-18T11:13:38;1.13;;;0.95;;
19396;SDS011;9834;48.076;11.878;2022-07-18T11:16:10;2.20;;;1.05;;
19396;SDS011;9834;48.076;11.878;2022-07-18T11:21:50;1.67;;;1.50;;
19396;SDS011;9834;48.076;11.878;2022-07-18T11:24:23;2.78;;;1.50;;
19396;SDS011;9834;48.076;11.878;2022-07-18T11:26:50;4.00;;;1.70;;
19396;SDS011;9834;48.076;11.878;2022-07-18T11:29:19;1.40;;;1.30;;
19396;SDS011;9834;48.076;11.878;2022-07-18T11:31:47;3.05;;;1.25;;
19396;SDS011;9834;48.076;11.878;2022-07-18T11:34:15;1.33;;;1.23;;
19396;SDS011;9834;48.076;11.878;2022-07-18T11:36:43;1.55;;;1.38;;
19396;SDS011;9834;48.076;11.878;2022-07-18T11:39:11;2.28;;;1.30;;
19396;SDS011;9834;48.076;11.878;2022-07-18T11:41:40;2.50;;;1.20;;
19396;SDS011;9834;48.076;11.878;2022-07-18T11:44:15;1.20;;;1.10;;
19396;SDS011;9834;48.076;11.878;2022-07-18T11:46:46;3.15;;;1.08;;
19396;SDS011;9834;48.076;11.878;2022-07-18T11:49:13;2.38;;;1.25;;
19396;SDS011;9834;48.076;11.878;2022-07-18T11:51:41;1.45;;;1.20;;
19396;SDS011;9834;48.076;11.878;2022-07-18T11:54:10;1.58;;;1.30;;
19396;SDS011;9834;48.076;11.878;2022-07-18T11:56:44;1.38;;;1.27;;
19396;SDS011;9834;48.076;11.878;2022-07-18T11:59:13;1.23;;;1.05;;
19396;SDS011;9834;48.076;11.878;2022-07-18T12:01:41;0.95;;;0.95;;
19396;SDS011;9834;48.076;11.878;2022-07-18T12:04:15;1.73;;;1.15;;
19396;SDS011;9834;48.076;11.878;2022-07-18T12:06:44;1.30;;;1.20;;
19396;SDS011;9834;48.076;11.878;2022-07-18T12:09:11;5.13;;;1.38;;
19396;SDS011;9834;48.076;11.878;2022-07-18T12:11:38;1.48;;;1.30;;
19396;SDS011;9834;48.076;11.878;2022-07-18T12:14:12;4.43;;;1.67;;
19396;SDS011;9834;48.076;11.878;2022-07-18T12:16:41;1.15;;;1.10;;
19396;SDS011;9834;48.076;11.878;2022-07-18T12:19:11;2.58;;;1.33;;
19396;SDS011;9834;48.076;11.878;2022-07-18T12:21:41;3.33;;;1.40;;
19396;SDS011;9834;48.076;11.878;2022-07-18T12:24:17;1.40;;;1.30;;
19396;SDS011;9834;48.076;11.878;2022-07-18T12:27:08;1.33;;;1.23;;
19396;SDS011;9834;48.076;11.878;2022-07-18T12:29:57;1.90;;;1.38;;
19396;SDS011;9834;48.076;11.878;2022-07-18T12:32:29;2.22;;;1.50;;
19396;SDS011;9834;48.076;11.878;2022-07-18T12:34:57;1.25;;;1.15;;
19396;SDS011;9834;48.076;11.878;2022-07-18T12:37:28;2.25;;;1.30;;
19396;SDS011;9834;48.076;11.878;2022-07-18T12:39:56;1.52;;;1.30;;
19396;SDS011;9834;48.076;11.878;2022-07-18T12:42:27;1.17;;;1.08;;
19396;SDS011;9834;48.076;11.878;2022-07-18T12:44:56;2.65;;;1.40;;
19396;SDS011;9834;48.076;11.878;2022-07-18T12:47:23;1.55;;;1.40;;
19396;SDS011;9834;48.076;11.878;2022-07-18T12:49:50;2.25;;;1.23;;
19396;SDS011;9834;48.076;11.878;2022-07-18T12:52:17;1.27;;;1.10;;
19396;SDS011;9834;48.076;11.878;2022-07-18T12:54:46;2.20;;;1.13;;
19396;SDS011;9834;48.076;11.878;2022-07-18T12:57:14;1.23;;;1.23;;
19396;SDS011;9834;48.076;11.878;2022-07-18T12:59:41;1.83;;;1.10;;
19396;SDS011;9834;48.076;11.878;2022-07-18T13:02:09;2.03;;;1.30;;
19396;SDS011;9834;48.076;11.878;2022-07-18T13:04:36;1.30;;;1.20;;
19396;SDS011;9834;48.076;11.878;2022-07-18T13:07:04;2.70;;;1.00;;
19396;SDS011;9834;48.076;11.878;2022-07-18T13:09:31;2.00;;;1.55;;
19396;SDS011;9834;48.076;11.878;2022-07-18T13:11:59;2.25;;;1.27;;
19396;SDS011;9834;48.076;11.878;2022-07-18T13:14:27;2.83;;;1.33;;
19396;SDS011;9834;48.076;11.878;2022-07-18T13:16:54;2.15;;;1.77;;
19396;SDS011;9834;48.076;11.878;2022-07-18T13:19:21;3.60;;;1.38;;
19396;SDS011;9834;48.076;11.878;2022-07-18T13:21:48;2.22;;;1.42;;
19396;SDS011;9834;48.076;11.878;2022-07-18T13:24:15;1.50;;;1.40;;
19396;SDS011;9834;48.076;11.878;2022-07-18T13:26:42;1.85;;;1.63;;
19396;SDS011;9834;48.076;11.878;2022-07-18T13:29:11;1.67;;;1.58;;
19396;SDS011;9834;48.076;11.878;2022-07-18T13:31:38;3.00;;;1.63;;
19396;SDS011;9834;48.076;11.878;2022-07-18T13:34:05;1.80;;;1.60;;
19396;SDS011;9834;48.076;11.878;2022-07-18T13:36:32;1.77;;;1.25;;
19396;SDS011;9834;48.076;11.878;2022-07-18T13:38:59;2.55;;;1.40;;
19396;SDS011;9834;48.076;11.878;2022-07-18T13:41:27;2.47;;;1.48;;
19396;SDS011;9834;48.076;11.878;2022-07-18T13:43:55;2.25;;;1.48;;
19396;SDS011;9834;48.076;11.878;2022-07-18T13:46:23;4.97;;;1.40;;
19396;SDS011;9834;48.076;11.878;2022-07-18T13:48:50;2.13;;;1.35;;
19396;SDS011;9834;48.076;11.878;2022-07-18T13:51:17;2.20;;;1.48;;
19396;SDS011;9834;48.076;11.878;2022-07-18T13:53:44;1.30;;;1.20;;
19396;SDS011;9834;48.076;11.878;2022-07-18T13:56:11;1.58;;;1.48;;
19396;SDS011;9834;48.076;11.878;2022-07-18T13:58:38;2.75;;;1.70;;
19396;SDS011;9834;48.076;11.878;2022-07-18T14:01:05;2.50;;;1.75;;
19396;SDS011;9834;48.076;11.878;2022-07-18T14:03:35;3.20;;;1.67;;
19396;SDS011;9834;48.076;11.878;2022-07-18T14:06:02;3.60;;;1.35;;
19396;SDS011;9834;48.076;11.878;2022-07-18T14:08:29;1.30;;;1.20;;
19396;SDS011;9834;48.076;11.878;2022-07-18T14:10:56;2.03;;;1.30;;
19396;SDS011;9834;48.076;11.878;2022-07-18T14:13:23;2.88;;;1.48;;
19396;SDS011;9834;48.076;11.878;2022-07-18T14:15:50;2.47;;;1.50;;
19396;SDS011;9834;48.076;11.878;2022-07-18T14:18:17;1.40;;;1.30;;
19396;SDS011;9834;48.076;11.878;2022-07-18T14:20:46;2.20;;;1.40;;
19396;SDS011;9834;48.076;11.878;2022-07-18T14:23:13;1.73;;;1.40;;
19396;SDS011;9834;48.076;11.878;2022-07-18T14:25:40;1.25;;;1.20;;
19396;SDS011;9834;48.076;11.878;2022-07-18T14:28:07;1.80;;;1.27;;
19396;SDS011;9834;48.076;11.878;2022-07-18T14:30:34;1.45;;;1.35;;
19396;SDS011;9834;48.076;11.878;2022-07-18T14:33:01;2.92;;;1.50;;
19396;SDS011;9834;48.076;11.878;2022-07-18T14:35:28;1.67;;;1.30;;
19396;SDS011;9834;48.076;11.878;2022-07-18T14:37:56;1.63;;;1.42;;
19396;SDS011;9834;48.076;11.878;2022-07-18T14:40:24;1.52;;;1.42;;
19396;SDS011;9834;48.076;11.878;2022-07-18T14:42:51;1.65;;;1.30;;
19396;SDS011;9834;48.076;11.878;2022-07-18T14:45:18;1.98;;;1.40;;
19396;SDS011;9834;48.076;11.878;2022-07-18T14:47:45;1.52;;;1.40;;
19396;SDS011;9834;48.076;11.878;2022-07-18T14:50:12;2.83;;;1.30;;
19396;SDS011;9834;48.076;11.878;2022-07-18T14:52:39;1.48;;;1.38;;
19396;SDS011;9834;48.076;11.878;2022-07-18T14:55:08;1.35;;;1.25;;
19396;SDS011;9834;48.076;11.878;2022-07-18T14:57:36;1.52;;;1.42;;
19396;SDS011;9834;48.076;11.878;2022-07-18T15:00:04;1.48;;;1.38;;
19396;SDS011;9834;48.076;11.878;2022-07-18T15:02:34;4.05;;;1.80;;
19396;SDS011;9834;48.076;11.878;2022-07-18T15:05:01;1.55;;;1.38;;
19396;SDS011;9834;48.076;11.878;2022-07-18T15:07:28;1.98;;;1.35;;
19396;SDS011;9834;48.076;11.878;2022-07-18T15:09:55;2.35;;;1.40;;
19396;SDS011;9834;48.076;11.878;2022-07-18T15:12:24;1.13;;;1.13;;
19396;SDS011;9834;48.076;11.878;2022-07-18T15:14:51;1.52;;;1.38;;
19396;SDS011;9834;48.076;11.878;2022-07-18T15:17:19;2.67;;;1.75;;